sensor_id;sensor_type;location;lat;lon;timestamp;P1;durP1;ratioP1;P2;durP2;ratioP2
22363;SDS011;11349;53.412;-1.328;2022-12-15T00:01:02;8.45;;;2.92;;
22363;SDS011;11349;53.412;-1.328;2022-12-15T00:03:47;9.75;;;3.10;;
22363;SDS011;11349;53.412;-1.328;2022-12-15T00:06:31;5.65;;;2.63;;
22363;SDS011;11349;53.412;-1.328;2022-12-15T00:09:15;6.75;;;3.05;;
22363;SDS011;11349;53.412;-1.328;2022-12-15T00:11:59;13.88;;;5.97;;
22363;SDS011;11349;53.412;-1.328;2022-12-15T00:14:43;14.27;;;6.68;;
22363;SDS011;11349;53.412;-1.328;2022-12-15T00:17:27;11.93;;;5.82;;
22363;SDS011;11349;53.412;-1.328;2022-12-15T00:20:12;18.98;;;6.45;;
22363;SDS011;11349;53.412;-1.328;2022-12-15T00:22:56;12.10;;;5.55;;
22363;SDS011;11349;53.412;-1.328;2022-12-15T00:25:41;15.13;;;5.45;;
22363;SDS011;11349;53.412;-1.328;2022-12-15T00:28:26;15.27;;;5.57;;
22363;SDS011;11349;53.412;-1.328;2022-12-15T00:31:10;10.57;;;3.30;;
22363;SDS011;11349;53.412;-1.328;2022-12-15T00:33:55;9.75;;;3.53;;
22363;SDS011;11349;53.412;-1.328;2022-12-15T00:36:39;9.48;;;3.72;;
22363;SDS011;11349;53.412;-1.328;2022-12-15T00:39:23;8.43;;;3.53;;
22363;SDS011;11349;53.412;-1.328;2022-12-15T00:41:48;13.68;;;3.72;;
22363;SDS011;11349;53.412;-1.328;2022-12-15T00:44:14;9.98;;;3.60;;
22363;SDS011;11349;53.412;-1.328;2022-12-15T00:46:40;12.40;;;3.40;;
22363;SDS011;11349;53.412;-1.328;2022-12-15T00:49:24;12.02;;;3.95;;
22363;SDS011;11349;53.412;-1.328;2022-12-15T00:52:10;7.45;;;4.32;;
22363;SDS011;11349;53.412;-1.328;2022-12-15T00:54:55;14.00;;;5.38;;
22363;SDS011;11349;53.412;-1.328;2022-12-15T00:57:40;14.77;;;5.82;;
22363;SDS011;11349;53.412;-1.328;2022-12-15T01:00:25;10.10;;;3.83;;
22363;SDS011;11349;53.412;-1.328;2022-12-15T01:05:54;7.63;;;3.53;;
22363;SDS011;11349;53.412;-1.328;2022-12-15T01:08:38;10.23;;;3.08;;
22363;SDS011;11349;53.412;-1.328;2022-12-15T01:11:22;8.40;;;3.33;;
22363;SDS011;11349;53.412;-1.328;2022-12-15T01:14:06;9.13;;;3.10;;
22363;SDS011;11349;53.412;-1.328;2022-12-15T01:16:51;9.23;;;3.35;;
22363;SDS011;11349;53.412;-1.328;2022-12-15T01:19:35;5.40;;;2.70;;
22363;SDS011;11349;53.412;-1.328;2022-12-15T01:22:19;5.53;;;2.10;;
22363;SDS011;11349;53.412;-1.328;2022-12-15T01:24:45;7.35;;;2.60;;
22363;SDS011;11349;53.412;-1.328;2022-12-15T01:27:10;5.07;;;2.38;;
22363;SDS011;11349;53.412;-1.328;2022-12-15T01:29:36;6.30;;;3.30;;
22363;SDS011;11349;53.412;-1.328;2022-12-15T01:32:02;6.93;;;3.00;;
22363;SDS011;11349;53.412;-1.328;2022-12-15T01:34:27;7.05;;;3.80;;
22363;SDS011;11349;53.412;-1.328;2022-12-15T01:36:53;8.13;;;3.50;;
22363;SDS011;11349;53.412;-1.328;2022-12-15T01:39:19;11.77;;;4.43;;
22363;SDS011;11349;53.412;-1.328;2022-12-15T01:41:45;7.05;;;2.85;;
22363;SDS011;11349;53.412;-1.328;2022-12-15T01:44:15;12.60;;;3.20;;
22363;SDS011;11349;53.412;-1.328;2022-12-15T01:46:46;8.05;;;3.25;;
22363;SDS011;11349;53.412;-1.328;2022-12-15T01:49:16;8.13;;;2.80;;
22363;SDS011;11349;53.412;-1.328;2022-12-15T01:51:47;7.63;;;3.05;;
22363;SDS011;11349;53.412;-1.328;2022-12-15T01:54:18;5.28;;;2.13;;
22363;SDS011;11349;53.412;-1.328;2022-12-15T01:56:49;8.45;;;2.08;;
22363;SDS011;11349;53.412;-1.328;2022-12-15T01:59:18;5.15;;;2.00;;
22363;SDS011;11349;53.412;-1.328;2022-12-15T02:01:49;5.93;;;1.83;;
22363;SDS011;11349;53.412;-1.328;2022-12-15T02:04:16;8.57;;;2.00;;
22363;SDS011;11349;53.412;-1.328;2022-12-15T02:06:43;9.73;;;3.08;;
22363;SDS011;11349;53.412;-1.328;2022-12-15T02:09:10;7.80;;;2.25;;
22363;SDS011;11349;53.412;-1.328;2022-12-15T02:11:53;8.70;;;2.20;;
22363;SDS011;11349;53.412;-1.328;2022-12-15T02:14:42;8.75;;;2.47;;
22363;SDS011;11349;53.412;-1.328;2022-12-15T02:20:51;9.80;;;3.75;;
22363;SDS011;11349;53.412;-1.328;2022-12-15T02:31:35;7.57;;;3.10;;
22363;SDS011;11349;53.412;-1.328;2022-12-15T02:34:18;8.60;;;3.35;;
22363;SDS011;11349;53.412;-1.328;2022-12-15T02:37:12;10.00;;;3.28;;
22363;SDS011;11349;53.412;-1.328;2022-12-15T02:39:41;7.10;;;3.40;;
22363;SDS011;11349;53.412;-1.328;2022-12-15T02:42:10;10.05;;;2.60;;
22363;SDS011;11349;53.412;-1.328;2022-12-15T02:47:24;11.23;;;3.05;;
22363;SDS011;11349;53.412;-1.328;2022-12-15T02:53:00;8.30;;;2.53;;
22363;SDS011;11349;53.412;-1.328;2022-12-15T02:58:30;7.40;;;2.65;;
22363;SDS011;11349;53.412;-1.328;2022-12-15T03:01:28;7.05;;;2.40;;
22363;SDS011;11349;53.412;-1.328;2022-12-15T03:03:58;7.05;;;2.22;;
22363;SDS011;11349;53.412;-1.328;2022-12-15T03:06:27;8.10;;;2.30;;
22363;SDS011;11349;53.412;-1.328;2022-12-15T03:08:53;4.25;;;1.95;;
22363;SDS011;11349;53.412;-1.328;2022-12-15T03:11:19;7.05;;;2.25;;
22363;SDS011;11349;53.412;-1.328;2022-12-15T03:13:44;5.32;;;1.98;;
22363;SDS011;11349;53.412;-1.328;2022-12-15T03:16:10;8.52;;;2.20;;
22363;SDS011;11349;53.412;-1.328;2022-12-15T03:18:36;10.95;;;2.80;;
22363;SDS011;11349;53.412;-1.328;2022-12-15T03:21:02;6.07;;;2.30;;
22363;SDS011;11349;53.412;-1.328;2022-12-15T03:23:28;7.53;;;2.38;;
22363;SDS011;11349;53.412;-1.328;2022-12-15T03:25:53;9.80;;;2.45;;
22363;SDS011;11349;53.412;-1.328;2022-12-15T03:28:19;8.75;;;2.95;;
22363;SDS011;11349;53.412;-1.328;2022-12-15T03:30:46;7.53;;;2.55;;
22363;SDS011;11349;53.412;-1.328;2022-12-15T03:33:14;8.30;;;2.38;;
22363;SDS011;11349;53.412;-1.328;2022-12-15T03:35:40;6.07;;;2.13;;
22363;SDS011;11349;53.412;-1.328;2022-12-15T03:38:06;5.10;;;2.10;;
22363;SDS011;11349;53.412;-1.328;2022-12-15T03:40:31;9.93;;;2.30;;
22363;SDS011;11349;53.412;-1.328;2022-12-15T03:42:57;11.68;;;3.17;;
22363;SDS011;11349;53.412;-1.328;2022-12-15T03:45:24;7.55;;;1.90;;
22363;SDS011;11349;53.412;-1.328;2022-12-15T03:47:52;7.30;;;2.25;;
22363;SDS011;11349;53.412;-1.328;2022-12-15T03:50:20;8.27;;;2.30;;
22363;SDS011;11349;53.412;-1.328;2022-12-15T03:52:51;5.25;;;2.10;;
22363;SDS011;11349;53.412;-1.328;2022-12-15T03:55:18;13.23;;;3.08;;
22363;SDS011;11349;53.412;-1.328;2022-12-15T03:57:45;7.68;;;2.17;;
22363;SDS011;11349;53.412;-1.328;2022-12-15T04:00:11;7.63;;;2.25;;
22363;SDS011;11349;53.412;-1.328;2022-12-15T04:02:41;7.43;;;2.53;;
22363;SDS011;11349;53.412;-1.328;2022-12-15T04:05:07;6.00;;;2.47;;
22363;SDS011;11349;53.412;-1.328;2022-12-15T04:07:37;6.75;;;2.13;;
22363;SDS011;11349;53.412;-1.328;2022-12-15T04:10:03;9.07;;;2.25;;
22363;SDS011;11349;53.412;-1.328;2022-12-15T04:12:29;10.38;;;2.50;;
22363;SDS011;11349;53.412;-1.328;2022-12-15T04:14:55;8.15;;;2.50;;
22363;SDS011;11349;53.412;-1.328;2022-12-15T04:17:23;7.50;;;2.22;;
22363;SDS011;11349;53.412;-1.328;2022-12-15T04:19:49;7.30;;;1.83;;
22363;SDS011;11349;53.412;-1.328;2022-12-15T04:22:33;8.07;;;1.95;;
22363;SDS011;11349;53.412;-1.328;2022-12-15T04:24:59;6.18;;;2.05;;
22363;SDS011;11349;53.412;-1.328;2022-12-15T04:27:44;6.65;;;1.95;;
22363;SDS011;11349;53.412;-1.328;2022-12-15T04:30:29;11.27;;;2.00;;
22363;SDS011;11349;53.412;-1.328;2022-12-15T04:33:13;11.45;;;2.67;;
22363;SDS011;11349;53.412;-1.328;2022-12-15T04:35:58;6.03;;;1.92;;
22363;SDS011;11349;53.412;-1.328;2022-12-15T04:38:42;6.10;;;2.22;;
22363;SDS011;11349;53.412;-1.328;2022-12-15T04:41:27;7.55;;;2.15;;
22363;SDS011;11349;53.412;-1.328;2022-12-15T04:44:11;7.35;;;2.13;;
22363;SDS011;11349;53.412;-1.328;2022-12-15T04:46:55;7.93;;;2.55;;
22363;SDS011;11349;53.412;-1.328;2022-12-15T04:49:39;10.45;;;2.80;;
22363;SDS011;11349;53.412;-1.328;2022-12-15T04:52:23;9.50;;;2.20;;
22363;SDS011;11349;53.412;-1.328;2022-12-15T04:55:07;4.78;;;2.00;;
22363;SDS011;11349;53.412;-1.328;2022-12-15T04:57:52;6.68;;;2.60;;
22363;SDS011;11349;53.412;-1.328;2022-12-15T05:00:36;5.97;;;2.38;;
22363;SDS011;11349;53.412;-1.328;2022-12-15T05:03:20;9.13;;;3.00;;
22363;SDS011;11349;53.412;-1.328;2022-12-15T05:06:04;11.30;;;4.55;;
22363;SDS011;11349;53.412;-1.328;2022-12-15T05:08:49;9.07;;;3.70;;
22363;SDS011;11349;53.412;-1.328;2022-12-15T05:11:33;7.47;;;2.72;;
22363;SDS011;11349;53.412;-1.328;2022-12-15T05:14:17;5.78;;;2.67;;
22363;SDS011;11349;53.412;-1.328;2022-12-15T05:17:01;8.63;;;3.40;;
22363;SDS011;11349;53.412;-1.328;2022-12-15T05:19:46;7.57;;;2.70;;
22363;SDS011;11349;53.412;-1.328;2022-12-15T05:22:30;9.18;;;3.58;;
22363;SDS011;11349;53.412;-1.328;2022-12-15T05:25:14;8.00;;;4.18;;
22363;SDS011;11349;53.412;-1.328;2022-12-15T05:27:58;8.60;;;3.08;;
22363;SDS011;11349;53.412;-1.328;2022-12-15T05:30:42;9.85;;;3.20;;
22363;SDS011;11349;53.412;-1.328;2022-12-15T05:33:27;7.82;;;3.13;;
22363;SDS011;11349;53.412;-1.328;2022-12-15T05:35:54;7.38;;;2.92;;
22363;SDS011;11349;53.412;-1.328;2022-12-15T05:38:22;6.72;;;2.83;;
22363;SDS011;11349;53.412;-1.328;2022-12-15T05:40:47;10.07;;;3.45;;
22363;SDS011;11349;53.412;-1.328;2022-12-15T05:43:13;4.82;;;2.67;;
22363;SDS011;11349;53.412;-1.328;2022-12-15T05:45:39;8.60;;;3.63;;
22363;SDS011;11349;53.412;-1.328;2022-12-15T05:48:04;8.18;;;2.50;;
22363;SDS011;11349;53.412;-1.328;2022-12-15T05:50:30;10.77;;;2.75;;
22363;SDS011;11349;53.412;-1.328;2022-12-15T05:52:56;6.90;;;2.63;;
22363;SDS011;11349;53.412;-1.328;2022-12-15T05:55:22;8.82;;;2.67;;
22363;SDS011;11349;53.412;-1.328;2022-12-15T05:57:52;8.20;;;2.30;;
22363;SDS011;11349;53.412;-1.328;2022-12-15T06:00:18;5.57;;;2.03;;
22363;SDS011;11349;53.412;-1.328;2022-12-15T06:02:44;9.90;;;2.33;;
22363;SDS011;11349;53.412;-1.328;2022-12-15T06:05:10;6.70;;;2.85;;
22363;SDS011;11349;53.412;-1.328;2022-12-15T06:07:36;7.72;;;3.10;;
22363;SDS011;11349;53.412;-1.328;2022-12-15T06:10:02;9.90;;;3.05;;
22363;SDS011;11349;53.412;-1.328;2022-12-15T06:12:28;6.10;;;2.85;;
22363;SDS011;11349;53.412;-1.328;2022-12-15T06:14:54;9.32;;;3.10;;
22363;SDS011;11349;53.412;-1.328;2022-12-15T06:17:20;8.95;;;2.78;;
22363;SDS011;11349;53.412;-1.328;2022-12-15T06:19:46;5.25;;;2.80;;
22363;SDS011;11349;53.412;-1.328;2022-12-15T06:22:11;7.07;;;2.90;;
22363;SDS011;11349;53.412;-1.328;2022-12-15T06:24:37;5.40;;;2.45;;
22363;SDS011;11349;53.412;-1.328;2022-12-15T06:27:03;5.32;;;2.72;;
22363;SDS011;11349;53.412;-1.328;2022-12-15T06:29:29;12.57;;;3.60;;
22363;SDS011;11349;53.412;-1.328;2022-12-15T06:31:54;7.88;;;2.42;;
22363;SDS011;11349;53.412;-1.328;2022-12-15T06:34:20;5.70;;;2.47;;
22363;SDS011;11349;53.412;-1.328;2022-12-15T06:36:46;7.15;;;3.00;;
22363;SDS011;11349;53.412;-1.328;2022-12-15T06:39:13;4.93;;;2.42;;
22363;SDS011;11349;53.412;-1.328;2022-12-15T06:41:40;8.55;;;3.17;;
22363;SDS011;11349;53.412;-1.328;2022-12-15T06:44:06;8.05;;;3.38;;
22363;SDS011;11349;53.412;-1.328;2022-12-15T06:46:32;7.72;;;3.55;;
22363;SDS011;11349;53.412;-1.328;2022-12-15T06:48:58;11.82;;;4.15;;
22363;SDS011;11349;53.412;-1.328;2022-12-15T06:51:25;14.35;;;5.32;;
22363;SDS011;11349;53.412;-1.328;2022-12-15T06:53:52;9.35;;;5.13;;
22363;SDS011;11349;53.412;-1.328;2022-12-15T06:58:49;10.52;;;4.38;;
22363;SDS011;11349;53.412;-1.328;2022-12-15T07:01:16;13.90;;;4.30;;
22363;SDS011;11349;53.412;-1.328;2022-12-15T07:03:43;7.28;;;3.03;;
22363;SDS011;11349;53.412;-1.328;2022-12-15T07:06:10;10.43;;;3.42;;
22363;SDS011;11349;53.412;-1.328;2022-12-15T07:08:38;9.98;;;3.40;;
22363;SDS011;11349;53.412;-1.328;2022-12-15T07:11:05;10.38;;;3.03;;
22363;SDS011;11349;53.412;-1.328;2022-12-15T07:13:31;8.98;;;3.33;;
22363;SDS011;11349;53.412;-1.328;2022-12-15T07:15:58;8.68;;;3.58;;
22363;SDS011;11349;53.412;-1.328;2022-12-15T07:18:25;6.47;;;2.70;;
22363;SDS011;11349;53.412;-1.328;2022-12-15T07:20:50;7.93;;;3.28;;
22363;SDS011;11349;53.412;-1.328;2022-12-15T07:23:16;6.50;;;3.08;;
22363;SDS011;11349;53.412;-1.328;2022-12-15T07:25:42;8.65;;;2.95;;
22363;SDS011;11349;53.412;-1.328;2022-12-15T07:28:08;8.18;;;3.88;;
22363;SDS011;11349;53.412;-1.328;2022-12-15T07:30:35;9.95;;;4.32;;
22363;SDS011;11349;53.412;-1.328;2022-12-15T07:33:02;10.07;;;3.60;;
22363;SDS011;11349;53.412;-1.328;2022-12-15T07:35:28;8.82;;;3.67;;
22363;SDS011;11349;53.412;-1.328;2022-12-15T07:37:54;8.95;;;3.90;;
22363;SDS011;11349;53.412;-1.328;2022-12-15T07:40:20;9.38;;;3.97;;
22363;SDS011;11349;53.412;-1.328;2022-12-15T07:42:46;10.32;;;4.20;;
22363;SDS011;11349;53.412;-1.328;2022-12-15T07:45:12;8.13;;;3.75;;
22363;SDS011;11349;53.412;-1.328;2022-12-15T07:47:38;7.18;;;3.90;;
22363;SDS011;11349;53.412;-1.328;2022-12-15T07:50:04;10.60;;;4.65;;
22363;SDS011;11349;53.412;-1.328;2022-12-15T07:52:30;13.10;;;4.63;;
22363;SDS011;11349;53.412;-1.328;2022-12-15T07:54:56;11.98;;;3.78;;
22363;SDS011;11349;53.412;-1.328;2022-12-15T07:57:22;12.10;;;4.35;;
22363;SDS011;11349;53.412;-1.328;2022-12-15T07:59:48;9.07;;;3.78;;
22363;SDS011;11349;53.412;-1.328;2022-12-15T08:02:16;9.85;;;4.50;;
22363;SDS011;11349;53.412;-1.328;2022-12-15T08:04:42;9.55;;;4.68;;
22363;SDS011;11349;53.412;-1.328;2022-12-15T08:07:08;10.95;;;5.13;;
22363;SDS011;11349;53.412;-1.328;2022-12-15T08:09:35;12.57;;;5.53;;
22363;SDS011;11349;53.412;-1.328;2022-12-15T08:12:01;11.75;;;5.63;;
22363;SDS011;11349;53.412;-1.328;2022-12-15T08:14:27;15.75;;;5.45;;
22363;SDS011;11349;53.412;-1.328;2022-12-15T08:16:56;12.57;;;5.53;;
22363;SDS011;11349;53.412;-1.328;2022-12-15T08:19:22;11.55;;;5.35;;
22363;SDS011;11349;53.412;-1.328;2022-12-15T08:21:47;11.80;;;5.45;;
22363;SDS011;11349;53.412;-1.328;2022-12-15T08:24:13;11.55;;;4.22;;
22363;SDS011;11349;53.412;-1.328;2022-12-15T08:26:40;12.80;;;4.47;;
22363;SDS011;11349;53.412;-1.328;2022-12-15T08:29:07;10.52;;;4.10;;
22363;SDS011;11349;53.412;-1.328;2022-12-15T08:31:37;10.05;;;4.93;;
22363;SDS011;11349;53.412;-1.328;2022-12-15T08:34:03;9.63;;;4.35;;
22363;SDS011;11349;53.412;-1.328;2022-12-15T08:36:30;12.43;;;4.20;;
22363;SDS011;11349;53.412;-1.328;2022-12-15T08:38:57;9.15;;;4.03;;
22363;SDS011;11349;53.412;-1.328;2022-12-15T08:41:24;9.70;;;3.53;;
22363;SDS011;11349;53.412;-1.328;2022-12-15T08:43:55;9.07;;;3.28;;
22363;SDS011;11349;53.412;-1.328;2022-12-15T08:46:23;11.73;;;3.38;;
22363;SDS011;11349;53.412;-1.328;2022-12-15T08:48:53;9.45;;;3.72;;
22363;SDS011;11349;53.412;-1.328;2022-12-15T08:51:19;9.10;;;4.03;;
22363;SDS011;11349;53.412;-1.328;2022-12-15T08:53:47;10.98;;;3.70;;
22363;SDS011;11349;53.412;-1.328;2022-12-15T08:56:14;7.68;;;3.70;;
22363;SDS011;11349;53.412;-1.328;2022-12-15T08:58:41;8.13;;;3.72;;
22363;SDS011;11349;53.412;-1.328;2022-12-15T09:01:11;9.18;;;3.15;;
22363;SDS011;11349;53.412;-1.328;2022-12-15T09:03:47;9.50;;;3.40;;
22363;SDS011;11349;53.412;-1.328;2022-12-15T09:06:15;9.43;;;3.30;;
22363;SDS011;11349;53.412;-1.328;2022-12-15T09:08:43;5.45;;;2.55;;
22363;SDS011;11349;53.412;-1.328;2022-12-15T09:11:09;8.50;;;3.28;;
22363;SDS011;11349;53.412;-1.328;2022-12-15T09:13:38;9.60;;;2.92;;
22363;SDS011;11349;53.412;-1.328;2022-12-15T09:16:05;14.88;;;3.90;;
22363;SDS011;11349;53.412;-1.328;2022-12-15T09:18:33;10.95;;;3.33;;
22363;SDS011;11349;53.412;-1.328;2022-12-15T09:21:03;12.27;;;4.53;;
22363;SDS011;11349;53.412;-1.328;2022-12-15T09:23:30;13.35;;;5.45;;
22363;SDS011;11349;53.412;-1.328;2022-12-15T09:26:03;12.10;;;4.80;;
22363;SDS011;11349;53.412;-1.328;2022-12-15T09:28:31;12.65;;;6.53;;
22363;SDS011;11349;53.412;-1.328;2022-12-15T09:33:31;17.73;;;5.88;;
22363;SDS011;11349;53.412;-1.328;2022-12-15T09:35:57;13.32;;;6.38;;
22363;SDS011;11349;53.412;-1.328;2022-12-15T09:38:23;13.63;;;5.32;;
22363;SDS011;11349;53.412;-1.328;2022-12-15T09:40:49;18.17;;;5.55;;
22363;SDS011;11349;53.412;-1.328;2022-12-15T09:43:15;11.13;;;5.07;;
22363;SDS011;11349;53.412;-1.328;2022-12-15T09:45:48;10.48;;;5.03;;
22363;SDS011;11349;53.412;-1.328;2022-12-15T09:48:28;14.60;;;4.75;;
22363;SDS011;11349;53.412;-1.328;2022-12-15T09:51:04;13.75;;;4.70;;
22363;SDS011;11349;53.412;-1.328;2022-12-15T09:53:34;11.52;;;4.28;;
22363;SDS011;11349;53.412;-1.328;2022-12-15T09:56:02;15.93;;;5.28;;
22363;SDS011;11349;53.412;-1.328;2022-12-15T10:06:42;8.63;;;2.90;;
22363;SDS011;11349;53.412;-1.328;2022-12-15T10:09:18;13.55;;;3.30;;
22363;SDS011;11349;53.412;-1.328;2022-12-15T10:14:41;11.52;;;2.65;;
22363;SDS011;11349;53.412;-1.328;2022-12-15T10:19:51;10.95;;;3.63;;
22363;SDS011;11349;53.412;-1.328;2022-12-15T10:22:24;10.32;;;4.53;;
22363;SDS011;11349;53.412;-1.328;2022-12-15T10:24:52;12.35;;;4.22;;
22363;SDS011;11349;53.412;-1.328;2022-12-15T10:32:34;11.13;;;4.07;;
22363;SDS011;11349;53.412;-1.328;2022-12-15T10:35:15;10.82;;;4.32;;
22363;SDS011;11349;53.412;-1.328;2022-12-15T10:37:52;9.95;;;3.40;;
22363;SDS011;11349;53.412;-1.328;2022-12-15T10:40:41;9.43;;;3.35;;
22363;SDS011;11349;53.412;-1.328;2022-12-15T10:43:28;9.57;;;3.28;;
22363;SDS011;11349;53.412;-1.328;2022-12-15T10:48:36;23.52;;;3.85;;
22363;SDS011;11349;53.412;-1.328;2022-12-15T10:51:45;7.95;;;2.58;;
22363;SDS011;11349;53.412;-1.328;2022-12-15T10:53:52;13.98;;;2.20;;
22363;SDS011;11349;53.412;-1.328;2022-12-15T10:56:57;7.35;;;2.22;;
22363;SDS011;11349;53.412;-1.328;2022-12-15T10:59:33;3.75;;;1.55;;
22363;SDS011;11349;53.412;-1.328;2022-12-15T11:04:57;5.97;;;1.38;;
22363;SDS011;11349;53.412;-1.328;2022-12-15T11:07:27;14.57;;;2.92;;
22363;SDS011;11349;53.412;-1.328;2022-12-15T11:10:23;6.65;;;1.73;;
22363;SDS011;11349;53.412;-1.328;2022-12-15T11:13:17;6.85;;;2.45;;
22363;SDS011;11349;53.412;-1.328;2022-12-15T11:15:50;11.13;;;2.10;;
22363;SDS011;11349;53.412;-1.328;2022-12-15T11:29:23;5.32;;;1.90;;
22363;SDS011;11349;53.412;-1.328;2022-12-15T11:31:54;9.68;;;1.70;;
22363;SDS011;11349;53.412;-1.328;2022-12-15T11:34:21;7.50;;;2.60;;
22363;SDS011;11349;53.412;-1.328;2022-12-15T11:37:07;6.25;;;1.65;;
22363;SDS011;11349;53.412;-1.328;2022-12-15T11:50:58;6.93;;;2.58;;
22363;SDS011;11349;53.412;-1.328;2022-12-15T11:56:19;6.25;;;1.95;;
22363;SDS011;11349;53.412;-1.328;2022-12-15T12:07:46;5.53;;;1.50;;
22363;SDS011;11349;53.412;-1.328;2022-12-15T12:10:32;4.85;;;1.23;;
22363;SDS011;11349;53.412;-1.328;2022-12-15T12:13:22;3.10;;;1.25;;
22363;SDS011;11349;53.412;-1.328;2022-12-15T12:18:40;6.95;;;2.60;;
22363;SDS011;11349;53.412;-1.328;2022-12-15T12:21:25;6.55;;;2.00;;
22363;SDS011;11349;53.412;-1.328;2022-12-15T12:29:46;6.53;;;2.42;;
22363;SDS011;11349;53.412;-1.328;2022-12-15T12:35:02;4.00;;;1.52;;
22363;SDS011;11349;53.412;-1.328;2022-12-15T12:40:18;6.95;;;1.98;;
22363;SDS011;11349;53.412;-1.328;2022-12-15T12:42:53;3.30;;;1.67;;
22363;SDS011;11349;53.412;-1.328;2022-12-15T12:45:28;8.98;;;2.03;;
22363;SDS011;11349;53.412;-1.328;2022-12-15T12:48:24;5.85;;;1.95;;
22363;SDS011;11349;53.412;-1.328;2022-12-15T12:51:34;5.35;;;2.00;;
22363;SDS011;11349;53.412;-1.328;2022-12-15T12:53:57;12.98;;;3.40;;
22363;SDS011;11349;53.412;-1.328;2022-12-15T12:56:31;8.63;;;2.92;;
22363;SDS011;11349;53.412;-1.328;2022-12-15T12:59:48;7.03;;;2.30;;
22363;SDS011;11349;53.412;-1.328;2022-12-15T13:04:42;5.55;;;1.90;;
22363;SDS011;11349;53.412;-1.328;2022-12-15T13:07:27;5.57;;;2.10;;
22363;SDS011;11349;53.412;-1.328;2022-12-15T13:10:15;6.72;;;3.17;;
22363;SDS011;11349;53.412;-1.328;2022-12-15T13:12:50;4.35;;;2.17;;
22363;SDS011;11349;53.412;-1.328;2022-12-15T13:15:40;6.45;;;2.10;;
22363;SDS011;11349;53.412;-1.328;2022-12-15T13:20:40;4.72;;;2.28;;
22363;SDS011;11349;53.412;-1.328;2022-12-15T13:31:37;5.80;;;2.03;;
22363;SDS011;11349;53.412;-1.328;2022-12-15T13:39:01;7.85;;;2.38;;
22363;SDS011;11349;53.412;-1.328;2022-12-15T13:41:28;9.60;;;2.53;;
22363;SDS011;11349;53.412;-1.328;2022-12-15T13:43:54;10.68;;;2.20;;
22363;SDS011;11349;53.412;-1.328;2022-12-15T13:46:23;8.23;;;2.63;;
22363;SDS011;11349;53.412;-1.328;2022-12-15T13:49:02;6.80;;;2.38;;
22363;SDS011;11349;53.412;-1.328;2022-12-15T13:51:41;6.95;;;2.63;;
22363;SDS011;11349;53.412;-1.328;2022-12-15T13:54:14;9.65;;;2.75;;
22363;SDS011;11349;53.412;-1.328;2022-12-15T13:56:50;6.22;;;3.13;;
22363;SDS011;11349;53.412;-1.328;2022-12-15T13:59:36;8.43;;;2.38;;
22363;SDS011;11349;53.412;-1.328;2022-12-15T14:02:26;11.27;;;4.57;;
22363;SDS011;11349;53.412;-1.328;2022-12-15T14:07:39;10.18;;;2.72;;
22363;SDS011;11349;53.412;-1.328;2022-12-15T14:10:14;8.57;;;2.88;;
22363;SDS011;11349;53.412;-1.328;2022-12-15T14:13:00;8.13;;;2.60;;
22363;SDS011;11349;53.412;-1.328;2022-12-15T14:15:34;8.45;;;2.65;;
22363;SDS011;11349;53.412;-1.328;2022-12-15T14:18:28;5.85;;;2.55;;
22363;SDS011;11349;53.412;-1.328;2022-12-15T14:20:54;8.48;;;3.15;;
22363;SDS011;11349;53.412;-1.328;2022-12-15T14:23:21;7.63;;;2.20;;
22363;SDS011;11349;53.412;-1.328;2022-12-15T14:26:03;10.18;;;2.88;;
22363;SDS011;11349;53.412;-1.328;2022-12-15T14:28:35;7.03;;;2.88;;
22363;SDS011;11349;53.412;-1.328;2022-12-15T14:34:22;8.18;;;2.53;;
22363;SDS011;11349;53.412;-1.328;2022-12-15T14:36:44;7.97;;;3.25;;
22363;SDS011;11349;53.412;-1.328;2022-12-15T14:39:13;7.68;;;2.90;;
22363;SDS011;11349;53.412;-1.328;2022-12-15T14:41:45;9.02;;;3.22;;
22363;SDS011;11349;53.412;-1.328;2022-12-15T14:44:22;12.32;;;3.60;;
22363;SDS011;11349;53.412;-1.328;2022-12-15T14:46:53;9.10;;;3.60;;
22363;SDS011;11349;53.412;-1.328;2022-12-15T14:49:20;12.23;;;3.85;;
22363;SDS011;11349;53.412;-1.328;2022-12-15T14:51:58;15.13;;;4.60;;
22363;SDS011;11349;53.412;-1.328;2022-12-15T14:57:45;11.43;;;4.35;;
22363;SDS011;11349;53.412;-1.328;2022-12-15T14:59:53;11.65;;;3.90;;
22363;SDS011;11349;53.412;-1.328;2022-12-15T15:07:24;16.75;;;6.43;;
22363;SDS011;11349;53.412;-1.328;2022-12-15T15:09:52;16.40;;;7.18;;
22363;SDS011;11349;53.412;-1.328;2022-12-15T15:12:38;17.48;;;7.13;;
22363;SDS011;11349;53.412;-1.328;2022-12-15T15:15:10;12.32;;;4.78;;
22363;SDS011;11349;53.412;-1.328;2022-12-15T15:17:49;10.63;;;5.20;;
22363;SDS011;11349;53.412;-1.328;2022-12-15T15:20:31;12.82;;;5.85;;
22363;SDS011;11349;53.412;-1.328;2022-12-15T15:25:51;9.90;;;4.80;;
22363;SDS011;11349;53.412;-1.328;2022-12-15T15:33:15;7.90;;;4.60;;
22363;SDS011;11349;53.412;-1.328;2022-12-15T15:35:42;14.48;;;5.85;;
22363;SDS011;11349;53.412;-1.328;2022-12-15T15:38:15;15.43;;;7.00;;
22363;SDS011;11349;53.412;-1.328;2022-12-15T15:40:48;10.25;;;4.97;;
22363;SDS011;11349;53.412;-1.328;2022-12-15T15:43:15;11.95;;;4.72;;
22363;SDS011;11349;53.412;-1.328;2022-12-15T15:45:42;10.00;;;5.10;;
22363;SDS011;11349;53.412;-1.328;2022-12-15T15:48:13;11.60;;;4.72;;
22363;SDS011;11349;53.412;-1.328;2022-12-15T15:50:47;12.18;;;4.60;;
22363;SDS011;11349;53.412;-1.328;2022-12-15T15:53:17;11.15;;;5.18;;
22363;SDS011;11349;53.412;-1.328;2022-12-15T15:55:47;13.15;;;5.15;;
22363;SDS011;11349;53.412;-1.328;2022-12-15T15:58:15;11.35;;;4.32;;
22363;SDS011;11349;53.412;-1.328;2022-12-15T16:00:41;11.15;;;5.30;;
22363;SDS011;11349;53.412;-1.328;2022-12-15T16:03:07;11.63;;;4.60;;
22363;SDS011;11349;53.412;-1.328;2022-12-15T16:05:33;9.25;;;4.78;;
22363;SDS011;11349;53.412;-1.328;2022-12-15T16:08:00;8.25;;;4.28;;
22363;SDS011;11349;53.412;-1.328;2022-12-15T16:10:27;9.02;;;4.60;;
22363;SDS011;11349;53.412;-1.328;2022-12-15T16:12:53;9.45;;;4.80;;
22363;SDS011;11349;53.412;-1.328;2022-12-15T16:15:28;11.70;;;5.10;;
22363;SDS011;11349;53.412;-1.328;2022-12-15T16:17:58;13.43;;;5.40;;
22363;SDS011;11349;53.412;-1.328;2022-12-15T16:20:25;10.55;;;5.32;;
22363;SDS011;11349;53.412;-1.328;2022-12-15T16:22:54;12.38;;;4.78;;
22363;SDS011;11349;53.412;-1.328;2022-12-15T16:27:58;9.65;;;4.65;;
22363;SDS011;11349;53.412;-1.328;2022-12-15T16:30:24;9.27;;;5.18;;
22363;SDS011;11349;53.412;-1.328;2022-12-15T16:32:53;11.10;;;4.88;;
22363;SDS011;11349;53.412;-1.328;2022-12-15T16:35:19;16.13;;;5.72;;
22363;SDS011;11349;53.412;-1.328;2022-12-15T16:37:48;12.70;;;5.60;;
22363;SDS011;11349;53.412;-1.328;2022-12-15T16:42:50;11.20;;;4.60;;
22363;SDS011;11349;53.412;-1.328;2022-12-15T16:45:19;10.10;;;5.18;;
22363;SDS011;11349;53.412;-1.328;2022-12-15T16:47:45;10.77;;;5.00;;
22363;SDS011;11349;53.412;-1.328;2022-12-15T16:50:15;13.35;;;5.70;;
22363;SDS011;11349;53.412;-1.328;2022-12-15T16:52:43;13.27;;;5.38;;
22363;SDS011;11349;53.412;-1.328;2022-12-15T16:55:21;17.25;;;5.65;;
22363;SDS011;11349;53.412;-1.328;2022-12-15T16:57:47;13.57;;;5.38;;
22363;SDS011;11349;53.412;-1.328;2022-12-15T17:00:23;17.63;;;5.13;;
22363;SDS011;11349;53.412;-1.328;2022-12-15T17:02:51;13.65;;;5.35;;
22363;SDS011;11349;53.412;-1.328;2022-12-15T17:05:17;9.20;;;4.78;;
22363;SDS011;11349;53.412;-1.328;2022-12-15T17:07:51;15.90;;;5.57;;
22363;SDS011;11349;53.412;-1.328;2022-12-15T17:10:23;13.00;;;5.63;;
22363;SDS011;11349;53.412;-1.328;2022-12-15T17:12:50;12.43;;;5.80;;
22363;SDS011;11349;53.412;-1.328;2022-12-15T17:15:21;15.05;;;6.63;;
22363;SDS011;11349;53.412;-1.328;2022-12-15T17:17:49;17.30;;;6.18;;
22363;SDS011;11349;53.412;-1.328;2022-12-15T17:20:15;16.98;;;6.63;;
22363;SDS011;11349;53.412;-1.328;2022-12-15T17:22:44;15.27;;;6.53;;
22363;SDS011;11349;53.412;-1.328;2022-12-15T17:25:14;14.30;;;7.50;;